world map with SKU marked

SKU - Airport

This information may not be accurate or current and is not valid for navigation or flight planning. No warranty of fitness for any purpose is made or implied.

flag of Greece

Donate via PayPal

Additional information is available on the NEW Great Circle Mapper

Location
City:  Skiros, Stereá Elláda (Central Greece), Greece
ICAO / IATA:LGSY / SKU

Details
Type:Airport (Aerodrome, Airfield)
Use:Military
Latitude:38°58'03"N (38.967553)
Longitude:24°29'14"E (24.487228)
Datum:WGS 1984
Elevation:44 ft (13 m)
Runways:1
Longest:9849 × 98 ft (3002 × 30 m)

Time
Timezone:UTC+2 (DST+5)
Local Time:

Weather
METAR:LGSY  041350Z 08009KT 9999 SCT020 15/12 Q1018 RMK BKN180 BLU

Related Locations
Nearby:
Farthest:CHT: 11305 mi / 18194 km
Waitangi [Tuuta], CIT, NZ

Find:

   beyond  
but within

Other Information
Maps:
Sources:

  


 


Great Circle Mapper   Great Circle Mapper
Great Circle Mapper FAQ   Great Circle Mapper FAQ
  Karl's Home Page
KLS˛   KLS˛ Home
   GC on Facebook
Airlines of the World   Airlines of the World
Donate via PayPal


Copyright © 2004-2019, Karl L. Swartz. All rights reserved.
All trademarks mentioned herein belong to their respective owners.

Please see credits for attribution and copyright information.

Karl Swartz <karl@kls2.com>
  Powered by FreeBSD
Valid HTML 4.01!
Labeled with ICRA
hCard Microformat
Geo Microformat